createdAt,value
2018-04-29T00:06:38.844Z,99.90
2018-04-29T00:09:27.502Z,99.90
2018-04-29T00:15:07.724Z,99.90
2018-04-29T00:17:54.526Z,99.90
2018-04-29T00:33:03.074Z,99.90
2018-04-29T00:35:51.341Z,99.90
2018-04-29T00:44:44.181Z,99.90
2018-04-29T00:47:14.478Z,99.90
2018-04-29T00:56:05.667Z,99.90
2018-04-29T00:58:55.991Z,99.90
2018-04-29T01:04:35.271Z,99.90
2018-04-29T01:07:24.720Z,99.90
2018-04-29T01:12:43.543Z,99.90
2018-04-29T01:18:39.369Z,99.90
2018-04-29T01:21:27.611Z,99.90
2018-04-29T01:23:57.745Z,99.90
2018-04-29T01:29:48.696Z,99.90
2018-04-29T01:38:20.549Z,99.90
2018-04-29T01:44:23.000Z,99.90
2018-04-29T01:46:53.089Z,99.90
2018-04-29T01:49:23.659Z,99.90
2018-04-29T01:51:54.869Z,99.90
2018-04-29T01:57:32.375Z,99.90
2018-04-29T02:06:23.285Z,99.90
2018-04-29T02:33:45.857Z,99.90
2018-04-29T02:36:38.854Z,99.90
2018-04-29T02:48:58.132Z,99.90
2018-04-29T02:54:46.474Z,99.90
2018-04-29T03:00:49.877Z,99.90
2018-04-29T03:03:20.232Z,99.90
2018-04-29T03:09:13.634Z,99.90
2018-04-29T03:12:06.694Z,99.90
2018-04-29T03:26:56.997Z,27.80
2018-04-29T03:29:52.062Z,21.00
2018-04-29T03:32:47.784Z,34.30
2018-04-29T03:35:33.187Z,30.60
2018-04-29T03:38:03.690Z,17.00
2018-04-29T03:44:04.238Z,17.50
2018-04-29T03:46:50.024Z,7.50
2018-04-29T03:55:22.967Z,16.30
2018-04-29T04:01:23.512Z,3.20
2018-04-29T04:03:58.838Z,17.40
2018-04-29T04:06:47.546Z,1.00
2018-04-29T04:09:33.560Z,1.00
2018-04-29T04:15:08.222Z,1.00
2018-04-29T04:17:38.682Z,14.10
2018-04-29T04:29:49.059Z,34.10
2018-04-29T04:32:19.443Z,84.80
2018-04-29T04:34:50.623Z,36.10
2018-04-29T04:37:20.792Z,36.70
2018-04-29T04:40:17.227Z,38.70
2018-04-29T04:51:50.305Z,4.00
2018-04-29T04:54:33.458Z,8.40
2018-04-29T05:00:26.256Z,70.30
2018-04-29T05:02:57.214Z,62.10
2018-04-29T05:05:47.734Z,42.50
2018-04-29T05:20:38.831Z,1.00
2018-04-29T05:23:09.366Z,1.00
2018-04-29T05:25:52.980Z,1.00
2018-04-29T05:31:50.444Z,1.00
2018-04-29T07:34:41.674Z,99.90
2018-04-29T08:47:33.712Z,99.90
2018-04-29T08:50:05.595Z,99.90
2018-04-29T08:52:36.229Z,99.90
2018-04-29T08:55:06.900Z,99.90
2018-04-29T08:57:37.527Z,99.90
2018-04-29T09:00:08.631Z,99.90
2018-04-29T09:02:39.545Z,99.90
2018-04-29T09:05:10.220Z,99.90
2018-04-29T09:07:40.877Z,99.90
2018-04-29T09:10:11.559Z,99.90
2018-04-29T09:12:43.018Z,99.90
2018-04-29T09:15:13.670Z,99.90
2018-04-29T09:17:44.668Z,99.90
2018-04-29T09:20:15.327Z,99.90
2018-04-29T09:22:46.231Z,99.90
2018-04-29T09:25:16.911Z,99.90
2018-04-29T10:25:06.355Z,57.90
2018-04-29T10:27:48.919Z,68.20
2018-04-29T10:30:20.083Z,58.10
2018-04-29T10:32:51.079Z,33.10
2018-04-29T10:35:22.923Z,57.80
2018-04-29T10:38:24.393Z,57.70
2018-04-29T10:40:55.158Z,68.90
2018-04-29T10:43:49.631Z,69.00
2018-04-29T10:46:21.441Z,80.00
2018-04-29T10:49:20.901Z,67.30
2018-04-29T10:51:52.161Z,42.80
2018-04-29T10:54:31.905Z,46.00
2018-04-29T10:57:02.573Z,65.80
2018-04-29T10:59:33.008Z,49.90
2018-04-29T11:02:04.182Z,47.20
2018-04-29T11:04:35.427Z,47.10
2018-04-29T11:14:03.845Z,43.00
2018-04-29T11:16:34.699Z,34.70
2018-04-29T11:19:19.194Z,18.40
2018-04-29T11:21:49.566Z,18.40
2018-04-29T11:24:24.731Z,9.90
2018-04-29T11:26:55.073Z,20.00
2018-04-29T11:29:26.189Z,4.80
2018-04-29T11:31:56.536Z,1.00
2018-04-29T11:34:27.082Z,13.20
2018-04-29T11:36:58.463Z,27.00
2018-04-29T11:39:29.604Z,5.40
2018-04-29T11:42:01.315Z,5.70
2018-04-29T11:44:31.688Z,1.00
2018-04-29T11:47:02.265Z,1.00
2018-04-29T11:49:33.912Z,1.00
2018-04-29T11:52:03.937Z,1.00
2018-04-29T11:54:35.021Z,1.00
2018-04-29T11:57:05.407Z,1.00
2018-04-29T11:59:35.909Z,1.00
2018-04-29T12:02:06.271Z,1.00
2018-04-29T12:04:36.633Z,1.00
2018-04-29T12:07:07.079Z,1.00
2018-04-29T12:09:37.418Z,1.00
2018-04-29T12:12:08.042Z,1.00
2018-04-29T12:14:38.594Z,1.00
2018-04-29T12:17:09.440Z,1.00
2018-04-29T12:19:40.820Z,1.00
2018-04-29T12:22:12.015Z,1.00
2018-04-29T12:24:42.502Z,1.00
2018-04-29T12:27:12.862Z,1.00
2018-04-29T12:29:43.902Z,1.00
2018-04-29T12:32:14.587Z,1.00
2018-04-29T12:34:45.221Z,1.00
2018-04-29T12:37:15.809Z,1.00
2018-04-29T12:39:47.791Z,1.00
2018-04-29T12:42:19.301Z,1.00
2018-04-29T12:44:50.229Z,1.00
2018-04-29T12:47:22.443Z,1.00
2018-04-29T12:53:17.609Z,8.80
2018-04-29T13:01:55.702Z,22.00
2018-04-29T13:32:08.741Z,1.00
2018-04-29T13:34:44.464Z,1.00
2018-04-29T13:47:48.474Z,4.40
2018-04-29T13:53:19.494Z,3.30
2018-04-29T14:05:09.893Z,5.60
2018-04-29T14:11:17.494Z,1.00
2018-04-29T14:26:48.035Z,1.00
2018-04-29T14:35:49.617Z,1.00
2018-04-29T14:38:20.302Z,1.00
2018-04-29T14:44:16.667Z,1.00
2018-04-29T14:46:50.985Z,1.00
2018-04-29T14:49:21.929Z,1.00
2018-04-29T14:58:13.219Z,1.00
2018-04-29T15:00:49.498Z,1.00
2018-04-29T15:03:20.520Z,1.00
2018-04-29T15:21:04.122Z,1.00
2018-04-29T16:48:50.669Z,78.00
2018-04-29T16:54:28.544Z,80.40
2018-04-29T16:56:59.673Z,65.70
2018-04-29T16:59:49.766Z,85.40
2018-04-29T17:02:20.438Z,84.30
2018-04-29T17:04:57.967Z,87.30
2018-04-29T17:13:50.824Z,89.90
2018-04-29T17:26:19.910Z,99.90
2018-04-29T17:29:16.795Z,99.90
2018-04-29T17:31:47.747Z,99.90
2018-04-29T17:43:43.124Z,99.90
2018-04-29T17:58:54.491Z,99.90
2018-04-29T18:07:43.543Z,99.90
2018-04-29T18:16:49.023Z,99.90
2018-04-29T18:19:30.461Z,99.90
2018-04-29T18:29:52.700Z,99.90
2018-04-29T18:32:30.875Z,99.90
2018-04-29T18:35:26.161Z,99.90
2018-04-29T18:38:19.326Z,99.90
2018-04-29T18:40:58.064Z,99.90
2018-04-29T18:43:28.851Z,99.90
2018-04-29T18:45:59.491Z,99.90
2018-04-29T18:51:49.381Z,99.90
2018-04-29T18:54:20.379Z,99.90
2018-04-29T19:00:01.133Z,99.90
2018-04-29T19:02:43.418Z,99.90
2018-04-29T19:05:20.242Z,99.90
2018-04-29T19:17:20.051Z,99.90
2018-04-29T19:20:17.178Z,99.90
2018-04-29T19:22:51.107Z,99.90
2018-04-29T19:48:10.723Z,99.90
2018-04-29T19:50:50.499Z,99.90
2018-04-29T19:59:41.035Z,99.90
2018-04-29T20:02:11.536Z,99.90
2018-04-29T20:26:28.093Z,99.90
2018-04-29T20:32:50.388Z,99.90
2018-04-29T20:35:20.552Z,99.90
2018-04-29T20:37:57.289Z,99.90
2018-04-29T20:49:34.159Z,99.90
2018-04-29T20:52:06.227Z,99.90
2018-04-29T20:54:36.385Z,99.90
2018-04-29T20:57:23.152Z,99.90
2018-04-29T21:00:08.631Z,99.90
2018-04-29T21:06:06.625Z,99.90
2018-04-29T21:08:36.900Z,99.90
2018-04-29T22:14:52.112Z,99.90
2018-04-29T22:17:39.134Z,99.90
2018-04-29T22:20:09.432Z,99.90
2018-04-29T22:38:49.941Z,99.90
2018-04-29T22:41:26.998Z,99.90
2018-04-29T22:47:18.205Z,99.90
2018-04-29T22:50:13.079Z,99.90
2018-04-29T22:55:52.747Z,99.90
2018-04-29T22:58:49.091Z,99.90
2018-04-29T23:01:19.094Z,99.90
2018-04-29T23:12:56.296Z,99.90
2018-04-29T23:15:26.942Z,99.90
2018-04-29T23:17:57.149Z,99.90
2018-04-29T23:20:27.256Z,1.00
2018-04-29T23:22:57.527Z,1.00
2018-04-29T23:25:30.275Z,1.00
2018-04-29T23:28:02.688Z,1.00
2018-04-29T23:30:32.769Z,1.00
2018-04-29T23:33:03.860Z,1.00
2018-04-29T23:35:34.895Z,1.00
2018-04-29T23:38:05.212Z,1.00
2018-04-29T23:40:35.359Z,1.00
2018-04-29T23:43:05.104Z,1.00
2018-04-29T23:45:35.381Z,1.00
2018-04-29T23:48:06.271Z,99.90
2018-04-29T23:50:36.834Z,99.90
2018-04-29T23:53:07.769Z,99.90
2018-04-29T23:55:38.006Z,99.90
2018-04-29T23:58:08.094Z,1.00
